sensor_id;sensor_type;location;lat;lon;timestamp;P1;durP1;ratioP1;P2;durP2;ratioP2
68319;SDS011;55168;51.120;17.024;2023-10-13T00:00:00;15.1;;;11.1;;
68319;SDS011;55168;51.120;17.024;2023-10-13T00:01:00;15.1;;;11.1;;
68319;SDS011;55168;51.120;17.024;2023-10-13T00:02:01;15.1;;;11.1;;
68319;SDS011;55168;51.120;17.024;2023-10-13T00:03:00;15.1;;;11.1;;
68319;SDS011;55168;51.120;17.024;2023-10-13T00:04:00;16.9;;;10.4;;
68319;SDS011;55168;51.120;17.024;2023-10-13T00:05:00;16.9;;;10.4;;
68319;SDS011;55168;51.120;17.024;2023-10-13T00:06:00;16.9;;;10.4;;
68319;SDS011;55168;51.120;17.024;2023-10-13T00:07:00;16.9;;;10.4;;
68319;SDS011;55168;51.120;17.024;2023-10-13T00:08:01;16.9;;;10.4;;
68319;SDS011;55168;51.120;17.024;2023-10-13T00:09:00;13.7;;;9.9;;
68319;SDS011;55168;51.120;17.024;2023-10-13T00:10:00;13.7;;;9.9;;
68319;SDS011;55168;51.120;17.024;2023-10-13T00:11:00;13.7;;;9.9;;
68319;SDS011;55168;51.120;17.024;2023-10-13T00:12:00;13.7;;;9.9;;
68319;SDS011;55168;51.120;17.024;2023-10-13T00:13:00;13.7;;;9.9;;
68319;SDS011;55168;51.120;17.024;2023-10-13T00:14:00;14.8;;;10.4;;
68319;SDS011;55168;51.120;17.024;2023-10-13T00:15:00;14.8;;;10.4;;
68319;SDS011;55168;51.120;17.024;2023-10-13T00:16:00;14.8;;;10.4;;
68319;SDS011;55168;51.120;17.024;2023-10-13T00:17:01;14.8;;;10.4;;
68319;SDS011;55168;51.120;17.024;2023-10-13T00:18:00;14.8;;;10.4;;
68319;SDS011;55168;51.120;17.024;2023-10-13T00:19:00;15.0;;;10.3;;
68319;SDS011;55168;51.120;17.024;2023-10-13T00:20:00;15.0;;;10.3;;
68319;SDS011;55168;51.120;17.024;2023-10-13T00:21:01;15.0;;;10.3;;
68319;SDS011;55168;51.120;17.024;2023-10-13T00:22:00;15.0;;;10.3;;
68319;SDS011;55168;51.120;17.024;2023-10-13T00:23:00;15.0;;;10.3;;
68319;SDS011;55168;51.120;17.024;2023-10-13T00:24:00;14.1;;;10.1;;
68319;SDS011;55168;51.120;17.024;2023-10-13T00:25:00;14.1;;;10.1;;
68319;SDS011;55168;51.120;17.024;2023-10-13T00:26:00;14.1;;;10.1;;
68319;SDS011;55168;51.120;17.024;2023-10-13T00:27:00;14.1;;;10.1;;
68319;SDS011;55168;51.120;17.024;2023-10-13T00:28:00;14.1;;;10.1;;
68319;SDS011;55168;51.120;17.024;2023-10-13T00:29:01;14.0;;;10.5;;
68319;SDS011;55168;51.120;17.024;2023-10-13T00:30:02;14.0;;;10.5;;
68319;SDS011;55168;51.120;17.024;2023-10-13T00:31:01;14.0;;;10.5;;
68319;SDS011;55168;51.120;17.024;2023-10-13T00:32:00;14.0;;;10.5;;
68319;SDS011;55168;51.120;17.024;2023-10-13T00:33:00;14.0;;;10.5;;
68319;SDS011;55168;51.120;17.024;2023-10-13T00:34:00;15.0;;;10.6;;
68319;SDS011;55168;51.120;17.024;2023-10-13T00:35:00;15.0;;;10.6;;
68319;SDS011;55168;51.120;17.024;2023-10-13T00:36:00;15.0;;;10.6;;
68319;SDS011;55168;51.120;17.024;2023-10-13T00:37:00;15.0;;;10.6;;
68319;SDS011;55168;51.120;17.024;2023-10-13T00:38:00;15.0;;;10.6;;
68319;SDS011;55168;51.120;17.024;2023-10-13T00:39:00;15.9;;;10.8;;
68319;SDS011;55168;51.120;17.024;2023-10-13T00:40:00;15.9;;;10.8;;
68319;SDS011;55168;51.120;17.024;2023-10-13T00:41:00;15.9;;;10.8;;
68319;SDS011;55168;51.120;17.024;2023-10-13T00:42:00;15.9;;;10.8;;
68319;SDS011;55168;51.120;17.024;2023-10-13T00:43:01;15.9;;;10.8;;
68319;SDS011;55168;51.120;17.024;2023-10-13T00:44:00;15.8;;;10.3;;
68319;SDS011;55168;51.120;17.024;2023-10-13T00:45:00;15.8;;;10.3;;
68319;SDS011;55168;51.120;17.024;2023-10-13T00:46:02;15.8;;;10.3;;
68319;SDS011;55168;51.120;17.024;2023-10-13T00:47:00;15.8;;;10.3;;
68319;SDS011;55168;51.120;17.024;2023-10-13T00:48:00;15.8;;;10.3;;
68319;SDS011;55168;51.120;17.024;2023-10-13T00:49:01;16.3;;;10.5;;
68319;SDS011;55168;51.120;17.024;2023-10-13T00:50:00;16.3;;;10.5;;
68319;SDS011;55168;51.120;17.024;2023-10-13T00:51:03;16.3;;;10.5;;
68319;SDS011;55168;51.120;17.024;2023-10-13T00:52:00;16.3;;;10.5;;
68319;SDS011;55168;51.120;17.024;2023-10-13T00:53:00;16.3;;;10.5;;
68319;SDS011;55168;51.120;17.024;2023-10-13T00:54:02;14.2;;;10.8;;
68319;SDS011;55168;51.120;17.024;2023-10-13T00:55:00;14.2;;;10.8;;
68319;SDS011;55168;51.120;17.024;2023-10-13T00:56:01;14.2;;;10.8;;
68319;SDS011;55168;51.120;17.024;2023-10-13T00:57:00;14.2;;;10.8;;
68319;SDS011;55168;51.120;17.024;2023-10-13T00:58:01;14.2;;;10.8;;
68319;SDS011;55168;51.120;17.024;2023-10-13T00:59:00;14.7;;;11.2;;
68319;SDS011;55168;51.120;17.024;2023-10-13T01:00:00;14.7;;;11.2;;
68319;SDS011;55168;51.120;17.024;2023-10-13T01:01:01;14.7;;;11.2;;
68319;SDS011;55168;51.120;17.024;2023-10-13T01:02:00;14.7;;;11.2;;
68319;SDS011;55168;51.120;17.024;2023-10-13T01:03:00;14.7;;;11.2;;
68319;SDS011;55168;51.120;17.024;2023-10-13T01:04:00;16.9;;;10.5;;
68319;SDS011;55168;51.120;17.024;2023-10-13T01:05:01;16.9;;;10.5;;
68319;SDS011;55168;51.120;17.024;2023-10-13T01:06:00;16.9;;;10.5;;
68319;SDS011;55168;51.120;17.024;2023-10-13T01:07:00;16.9;;;10.5;;
68319;SDS011;55168;51.120;17.024;2023-10-13T01:08:00;16.9;;;10.5;;
68319;SDS011;55168;51.120;17.024;2023-10-13T01:09:02;14.6;;;11.2;;
68319;SDS011;55168;51.120;17.024;2023-10-13T01:10:00;14.6;;;11.2;;
68319;SDS011;55168;51.120;17.024;2023-10-13T01:11:00;14.6;;;11.2;;
68319;SDS011;55168;51.120;17.024;2023-10-13T01:12:00;14.6;;;11.2;;
68319;SDS011;55168;51.120;17.024;2023-10-13T01:13:00;14.6;;;11.2;;
68319;SDS011;55168;51.120;17.024;2023-10-13T01:14:00;14.4;;;10.6;;
68319;SDS011;55168;51.120;17.024;2023-10-13T01:15:01;14.4;;;10.6;;
68319;SDS011;55168;51.120;17.024;2023-10-13T01:16:00;14.4;;;10.6;;
68319;SDS011;55168;51.120;17.024;2023-10-13T01:17:00;14.4;;;10.6;;
68319;SDS011;55168;51.120;17.024;2023-10-13T01:18:09;14.4;;;10.6;;
68319;SDS011;55168;51.120;17.024;2023-10-13T01:19:00;18.3;;;11.8;;
68319;SDS011;55168;51.120;17.024;2023-10-13T01:20:00;18.3;;;11.8;;
68319;SDS011;55168;51.120;17.024;2023-10-13T01:21:04;18.3;;;11.8;;
68319;SDS011;55168;51.120;17.024;2023-10-13T01:22:00;18.3;;;11.8;;
68319;SDS011;55168;51.120;17.024;2023-10-13T01:23:03;18.3;;;11.8;;
68319;SDS011;55168;51.120;17.024;2023-10-13T01:24:00;15.2;;;11.1;;
68319;SDS011;55168;51.120;17.024;2023-10-13T01:25:00;15.2;;;11.1;;
68319;SDS011;55168;51.120;17.024;2023-10-13T01:26:00;15.2;;;11.1;;
68319;SDS011;55168;51.120;17.024;2023-10-13T01:27:01;15.2;;;11.1;;
68319;SDS011;55168;51.120;17.024;2023-10-13T01:28:00;15.2;;;11.1;;
68319;SDS011;55168;51.120;17.024;2023-10-13T01:29:00;14.6;;;10.8;;
68319;SDS011;55168;51.120;17.024;2023-10-13T01:30:00;14.6;;;10.8;;
68319;SDS011;55168;51.120;17.024;2023-10-13T01:31:00;14.6;;;10.8;;
68319;SDS011;55168;51.120;17.024;2023-10-13T01:32:00;14.6;;;10.8;;
68319;SDS011;55168;51.120;17.024;2023-10-13T01:33:00;14.6;;;10.8;;
68319;SDS011;55168;51.120;17.024;2023-10-13T01:34:00;18.4;;;10.6;;
68319;SDS011;55168;51.120;17.024;2023-10-13T01:35:00;18.4;;;10.6;;
68319;SDS011;55168;51.120;17.024;2023-10-13T01:36:00;18.4;;;10.6;;
68319;SDS011;55168;51.120;17.024;2023-10-13T01:37:00;18.4;;;10.6;;
68319;SDS011;55168;51.120;17.024;2023-10-13T01:38:00;18.4;;;10.6;;
68319;SDS011;55168;51.120;17.024;2023-10-13T01:39:00;15.1;;;11.7;;
68319;SDS011;55168;51.120;17.024;2023-10-13T01:40:00;15.1;;;11.7;;
68319;SDS011;55168;51.120;17.024;2023-10-13T01:41:00;15.1;;;11.7;;
68319;SDS011;55168;51.120;17.024;2023-10-13T01:42:00;15.1;;;11.7;;
68319;SDS011;55168;51.120;17.024;2023-10-13T01:43:01;15.1;;;11.7;;
68319;SDS011;55168;51.120;17.024;2023-10-13T01:44:00;17.1;;;11.5;;
68319;SDS011;55168;51.120;17.024;2023-10-13T01:45:00;17.1;;;11.5;;
68319;SDS011;55168;51.120;17.024;2023-10-13T01:46:00;17.1;;;11.5;;
68319;SDS011;55168;51.120;17.024;2023-10-13T01:47:00;17.1;;;11.5;;
68319;SDS011;55168;51.120;17.024;2023-10-13T01:48:00;17.1;;;11.5;;
68319;SDS011;55168;51.120;17.024;2023-10-13T01:49:00;13.1;;;11.4;;
68319;SDS011;55168;51.120;17.024;2023-10-13T01:50:00;13.1;;;11.4;;
68319;SDS011;55168;51.120;17.024;2023-10-13T01:51:00;13.1;;;11.4;;
68319;SDS011;55168;51.120;17.024;2023-10-13T01:52:00;13.1;;;11.4;;
68319;SDS011;55168;51.120;17.024;2023-10-13T01:53:00;13.1;;;11.4;;
68319;SDS011;55168;51.120;17.024;2023-10-13T01:54:00;16.3;;;12.1;;
68319;SDS011;55168;51.120;17.024;2023-10-13T01:55:00;16.3;;;12.1;;
68319;SDS011;55168;51.120;17.024;2023-10-13T01:56:00;16.3;;;12.1;;
68319;SDS011;55168;51.120;17.024;2023-10-13T01:57:00;16.3;;;12.1;;
68319;SDS011;55168;51.120;17.024;2023-10-13T01:58:00;16.3;;;12.1;;
68319;SDS011;55168;51.120;17.024;2023-10-13T01:59:00;17.3;;;11.9;;
68319;SDS011;55168;51.120;17.024;2023-10-13T02:00:00;17.3;;;11.9;;
68319;SDS011;55168;51.120;17.024;2023-10-13T02:01:00;17.3;;;11.9;;
68319;SDS011;55168;51.120;17.024;2023-10-13T02:02:00;17.3;;;11.9;;
68319;SDS011;55168;51.120;17.024;2023-10-13T02:03:00;17.3;;;11.9;;
68319;SDS011;55168;51.120;17.024;2023-10-13T02:04:01;15.2;;;11.2;;
68319;SDS011;55168;51.120;17.024;2023-10-13T02:05:00;15.2;;;11.2;;
68319;SDS011;55168;51.120;17.024;2023-10-13T02:06:00;15.2;;;11.2;;
68319;SDS011;55168;51.120;17.024;2023-10-13T02:07:00;15.2;;;11.2;;
68319;SDS011;55168;51.120;17.024;2023-10-13T02:08:00;15.2;;;11.2;;
68319;SDS011;55168;51.120;17.024;2023-10-13T02:09:02;14.6;;;11.5;;
68319;SDS011;55168;51.120;17.024;2023-10-13T02:10:00;14.6;;;11.5;;
68319;SDS011;55168;51.120;17.024;2023-10-13T02:11:00;14.6;;;11.5;;
68319;SDS011;55168;51.120;17.024;2023-10-13T02:12:00;14.6;;;11.5;;
68319;SDS011;55168;51.120;17.024;2023-10-13T02:13:00;14.6;;;11.5;;
68319;SDS011;55168;51.120;17.024;2023-10-13T02:14:00;14.7;;;11.6;;
68319;SDS011;55168;51.120;17.024;2023-10-13T02:15:00;14.7;;;11.6;;
68319;SDS011;55168;51.120;17.024;2023-10-13T02:16:00;14.7;;;11.6;;
68319;SDS011;55168;51.120;17.024;2023-10-13T02:17:00;14.7;;;11.6;;
68319;SDS011;55168;51.120;17.024;2023-10-13T02:18:00;14.7;;;11.6;;
68319;SDS011;55168;51.120;17.024;2023-10-13T02:19:00;18.5;;;12.7;;
68319;SDS011;55168;51.120;17.024;2023-10-13T02:20:00;18.5;;;12.7;;
68319;SDS011;55168;51.120;17.024;2023-10-13T02:21:03;18.5;;;12.7;;
68319;SDS011;55168;51.120;17.024;2023-10-13T02:22:00;18.5;;;12.7;;
68319;SDS011;55168;51.120;17.024;2023-10-13T02:23:00;18.5;;;12.7;;
68319;SDS011;55168;51.120;17.024;2023-10-13T02:24:00;16.0;;;12.0;;
68319;SDS011;55168;51.120;17.024;2023-10-13T02:25:00;16.0;;;12.0;;
68319;SDS011;55168;51.120;17.024;2023-10-13T02:26:00;16.0;;;12.0;;
68319;SDS011;55168;51.120;17.024;2023-10-13T02:27:00;16.0;;;12.0;;
68319;SDS011;55168;51.120;17.024;2023-10-13T02:28:00;16.0;;;12.0;;
68319;SDS011;55168;51.120;17.024;2023-10-13T02:29:01;16.5;;;12.1;;
68319;SDS011;55168;51.120;17.024;2023-10-13T02:30:00;16.5;;;12.1;;
68319;SDS011;55168;51.120;17.024;2023-10-13T02:31:02;16.5;;;12.1;;
68319;SDS011;55168;51.120;17.024;2023-10-13T02:32:00;16.5;;;12.1;;
68319;SDS011;55168;51.120;17.024;2023-10-13T02:33:00;16.5;;;12.1;;
68319;SDS011;55168;51.120;17.024;2023-10-13T02:34:00;15.5;;;12.3;;
68319;SDS011;55168;51.120;17.024;2023-10-13T02:35:00;15.5;;;12.3;;
68319;SDS011;55168;51.120;17.024;2023-10-13T02:36:02;15.5;;;12.3;;
68319;SDS011;55168;51.120;17.024;2023-10-13T02:37:00;15.5;;;12.3;;
68319;SDS011;55168;51.120;17.024;2023-10-13T02:38:00;15.5;;;12.3;;
68319;SDS011;55168;51.120;17.024;2023-10-13T02:39:00;17.3;;;12.8;;
68319;SDS011;55168;51.120;17.024;2023-10-13T02:40:00;17.3;;;12.8;;
68319;SDS011;55168;51.120;17.024;2023-10-13T02:41:01;17.3;;;12.8;;
68319;SDS011;55168;51.120;17.024;2023-10-13T02:42:00;17.3;;;12.8;;
68319;SDS011;55168;51.120;17.024;2023-10-13T02:43:00;17.3;;;12.8;;
68319;SDS011;55168;51.120;17.024;2023-10-13T02:44:00;18.4;;;13.2;;
68319;SDS011;55168;51.120;17.024;2023-10-13T02:45:00;18.4;;;13.2;;
68319;SDS011;55168;51.120;17.024;2023-10-13T02:46:00;18.4;;;13.2;;
68319;SDS011;55168;51.120;17.024;2023-10-13T02:47:00;18.4;;;13.2;;
68319;SDS011;55168;51.120;17.024;2023-10-13T02:48:00;18.4;;;13.2;;
68319;SDS011;55168;51.120;17.024;2023-10-13T02:49:00;19.1;;;12.9;;
68319;SDS011;55168;51.120;17.024;2023-10-13T02:50:00;19.1;;;12.9;;
68319;SDS011;55168;51.120;17.024;2023-10-13T02:51:00;19.1;;;12.9;;
68319;SDS011;55168;51.120;17.024;2023-10-13T02:52:00;19.1;;;12.9;;
68319;SDS011;55168;51.120;17.024;2023-10-13T02:53:00;19.1;;;12.9;;
68319;SDS011;55168;51.120;17.024;2023-10-13T02:54:00;16.2;;;12.2;;
68319;SDS011;55168;51.120;17.024;2023-10-13T02:55:00;16.2;;;12.2;;
68319;SDS011;55168;51.120;17.024;2023-10-13T02:56:00;16.2;;;12.2;;
68319;SDS011;55168;51.120;17.024;2023-10-13T02:57:00;16.2;;;12.2;;
68319;SDS011;55168;51.120;17.024;2023-10-13T02:58:00;16.2;;;12.2;;
68319;SDS011;55168;51.120;17.024;2023-10-13T02:59:00;17.3;;;12.2;;
68319;SDS011;55168;51.120;17.024;2023-10-13T03:00:00;17.3;;;12.2;;
68319;SDS011;55168;51.120;17.024;2023-10-13T03:01:00;17.3;;;12.2;;
68319;SDS011;55168;51.120;17.024;2023-10-13T03:02:01;17.3;;;12.2;;
68319;SDS011;55168;51.120;17.024;2023-10-13T03:03:00;17.3;;;12.2;;
68319;SDS011;55168;51.120;17.024;2023-10-13T03:04:01;18.5;;;13.3;;
68319;SDS011;55168;51.120;17.024;2023-10-13T03:05:00;18.5;;;13.3;;
68319;SDS011;55168;51.120;17.024;2023-10-13T03:06:00;18.5;;;13.3;;
68319;SDS011;55168;51.120;17.024;2023-10-13T03:07:01;18.5;;;13.3;;
68319;SDS011;55168;51.120;17.024;2023-10-13T03:08:00;18.5;;;13.3;;
68319;SDS011;55168;51.120;17.024;2023-10-13T03:09:03;16.2;;;12.5;;
68319;SDS011;55168;51.120;17.024;2023-10-13T03:10:00;16.2;;;12.5;;
68319;SDS011;55168;51.120;17.024;2023-10-13T03:11:00;16.2;;;12.5;;
68319;SDS011;55168;51.120;17.024;2023-10-13T03:12:00;16.2;;;12.5;;
68319;SDS011;55168;51.120;17.024;2023-10-13T03:13:00;16.2;;;12.5;;
68319;SDS011;55168;51.120;17.024;2023-10-13T03:14:00;16.7;;;13.0;;
68319;SDS011;55168;51.120;17.024;2023-10-13T03:15:00;16.7;;;13.0;;
68319;SDS011;55168;51.120;17.024;2023-10-13T03:16:00;16.7;;;13.0;;
68319;SDS011;55168;51.120;17.024;2023-10-13T03:17:01;16.7;;;13.0;;
68319;SDS011;55168;51.120;17.024;2023-10-13T03:18:00;16.7;;;13.0;;
68319;SDS011;55168;51.120;17.024;2023-10-13T03:19:00;16.4;;;13.3;;
68319;SDS011;55168;51.120;17.024;2023-10-13T03:20:00;16.4;;;13.3;;
68319;SDS011;55168;51.120;17.024;2023-10-13T03:21:00;16.4;;;13.3;;
68319;SDS011;55168;51.120;17.024;2023-10-13T03:22:02;16.4;;;13.3;;
68319;SDS011;55168;51.120;17.024;2023-10-13T03:23:00;16.4;;;13.3;;
68319;SDS011;55168;51.120;17.024;2023-10-13T03:24:00;17.2;;;13.1;;
68319;SDS011;55168;51.120;17.024;2023-10-13T03:25:00;17.2;;;13.1;;
68319;SDS011;55168;51.120;17.024;2023-10-13T03:26:00;17.2;;;13.1;;
68319;SDS011;55168;51.120;17.024;2023-10-13T03:27:01;17.2;;;13.1;;
68319;SDS011;55168;51.120;17.024;2023-10-13T03:28:00;17.2;;;13.1;;
68319;SDS011;55168;51.120;17.024;2023-10-13T03:29:00;17.8;;;14.2;;
68319;SDS011;55168;51.120;17.024;2023-10-13T03:30:00;17.8;;;14.2;;
68319;SDS011;55168;51.120;17.024;2023-10-13T03:31:00;17.8;;;14.2;;
68319;SDS011;55168;51.120;17.024;2023-10-13T03:32:00;17.8;;;14.2;;
68319;SDS011;55168;51.120;17.024;2023-10-13T03:33:02;17.8;;;14.2;;
68319;SDS011;55168;51.120;17.024;2023-10-13T03:34:00;17.9;;;13.8;;
68319;SDS011;55168;51.120;17.024;2023-10-13T03:35:00;17.9;;;13.8;;
68319;SDS011;55168;51.120;17.024;2023-10-13T03:36:00;17.9;;;13.8;;
68319;SDS011;55168;51.120;17.024;2023-10-13T03:37:00;17.9;;;13.8;;
68319;SDS011;55168;51.120;17.024;2023-10-13T03:38:00;17.9;;;13.8;;
68319;SDS011;55168;51.120;17.024;2023-10-13T03:39:00;17.7;;;13.9;;
68319;SDS011;55168;51.120;17.024;2023-10-13T03:40:00;17.7;;;13.9;;
68319;SDS011;55168;51.120;17.024;2023-10-13T03:41:00;17.7;;;13.9;;
68319;SDS011;55168;51.120;17.024;2023-10-13T03:42:00;17.7;;;13.9;;
68319;SDS011;55168;51.120;17.024;2023-10-13T03:43:00;17.7;;;13.9;;
68319;SDS011;55168;51.120;17.024;2023-10-13T03:44:00;17.8;;;13.9;;
68319;SDS011;55168;51.120;17.024;2023-10-13T03:45:00;17.8;;;13.9;;
68319;SDS011;55168;51.120;17.024;2023-10-13T03:46:00;17.8;;;13.9;;
68319;SDS011;55168;51.120;17.024;2023-10-13T03:47:00;17.8;;;13.9;;
68319;SDS011;55168;51.120;17.024;2023-10-13T03:48:00;17.8;;;13.9;;
68319;SDS011;55168;51.120;17.024;2023-10-13T03:49:00;22.0;;;14.9;;
68319;SDS011;55168;51.120;17.024;2023-10-13T03:50:00;22.0;;;14.9;;
68319;SDS011;55168;51.120;17.024;2023-10-13T03:51:01;22.0;;;14.9;;
68319;SDS011;55168;51.120;17.024;2023-10-13T03:52:00;22.0;;;14.9;;
68319;SDS011;55168;51.120;17.024;2023-10-13T03:53:00;22.0;;;14.9;;
68319;SDS011;55168;51.120;17.024;2023-10-13T03:54:00;17.2;;;13.8;;
68319;SDS011;55168;51.120;17.024;2023-10-13T03:55:00;17.2;;;13.8;;
68319;SDS011;55168;51.120;17.024;2023-10-13T03:56:01;17.2;;;13.8;;
68319;SDS011;55168;51.120;17.024;2023-10-13T03:57:00;17.2;;;13.8;;
68319;SDS011;55168;51.120;17.024;2023-10-13T03:58:00;17.2;;;13.8;;
68319;SDS011;55168;51.120;17.024;2023-10-13T03:59:00;18.6;;;14.6;;
68319;SDS011;55168;51.120;17.024;2023-10-13T04:00:00;18.6;;;14.6;;
68319;SDS011;55168;51.120;17.024;2023-10-13T04:01:00;18.6;;;14.6;;
68319;SDS011;55168;51.120;17.024;2023-10-13T04:02:00;18.6;;;14.6;;
68319;SDS011;55168;51.120;17.024;2023-10-13T04:03:00;18.6;;;14.6;;
68319;SDS011;55168;51.120;17.024;2023-10-13T04:04:01;18.5;;;14.9;;
68319;SDS011;55168;51.120;17.024;2023-10-13T04:05:00;18.5;;;14.9;;
68319;SDS011;55168;51.120;17.024;2023-10-13T04:06:00;18.5;;;14.9;;
68319;SDS011;55168;51.120;17.024;2023-10-13T04:07:01;18.5;;;14.9;;
68319;SDS011;55168;51.120;17.024;2023-10-13T04:08:02;18.5;;;14.9;;
68319;SDS011;55168;51.120;17.024;2023-10-13T04:09:00;20.6;;;15.4;;
68319;SDS011;55168;51.120;17.024;2023-10-13T04:10:00;20.6;;;15.4;;
68319;SDS011;55168;51.120;17.024;2023-10-13T04:11:00;20.6;;;15.4;;
68319;SDS011;55168;51.120;17.024;2023-10-13T04:12:02;20.6;;;15.4;;
68319;SDS011;55168;51.120;17.024;2023-10-13T04:13:00;20.6;;;15.4;;
68319;SDS011;55168;51.120;17.024;2023-10-13T04:14:00;20.5;;;15.6;;
68319;SDS011;55168;51.120;17.024;2023-10-13T04:15:00;20.5;;;15.6;;
68319;SDS011;55168;51.120;17.024;2023-10-13T04:16:00;20.5;;;15.6;;
68319;SDS011;55168;51.120;17.024;2023-10-13T04:17:01;20.5;;;15.6;;
68319;SDS011;55168;51.120;17.024;2023-10-13T04:18:00;20.5;;;15.6;;
68319;SDS011;55168;51.120;17.024;2023-10-13T04:19:01;22.2;;;15.5;;
68319;SDS011;55168;51.120;17.024;2023-10-13T04:20:00;22.2;;;15.5;;
68319;SDS011;55168;51.120;17.024;2023-10-13T04:21:00;22.2;;;15.5;;
68319;SDS011;55168;51.120;17.024;2023-10-13T04:22:00;22.2;;;15.5;;
68319;SDS011;55168;51.120;17.024;2023-10-13T04:23:00;22.2;;;15.5;;
68319;SDS011;55168;51.120;17.024;2023-10-13T04:24:00;21.2;;;16.3;;
68319;SDS011;55168;51.120;17.024;2023-10-13T04:25:00;21.2;;;16.3;;
68319;SDS011;55168;51.120;17.024;2023-10-13T04:26:04;21.2;;;16.3;;
68319;SDS011;55168;51.120;17.024;2023-10-13T04:27:00;21.2;;;16.3;;
68319;SDS011;55168;51.120;17.024;2023-10-13T04:28:01;21.2;;;16.3;;
68319;SDS011;55168;51.120;17.024;2023-10-13T04:29:00;20.2;;;15.4;;
68319;SDS011;55168;51.120;17.024;2023-10-13T04:30:00;20.2;;;15.4;;
68319;SDS011;55168;51.120;17.024;2023-10-13T04:31:00;20.2;;;15.4;;
68319;SDS011;55168;51.120;17.024;2023-10-13T04:32:00;20.2;;;15.4;;
68319;SDS011;55168;51.120;17.024;2023-10-13T04:33:00;20.2;;;15.4;;
68319;SDS011;55168;51.120;17.024;2023-10-13T04:34:00;19.2;;;15.8;;
68319;SDS011;55168;51.120;17.024;2023-10-13T04:35:01;19.2;;;15.8;;
68319;SDS011;55168;51.120;17.024;2023-10-13T04:36:16;19.2;;;15.8;;
68319;SDS011;55168;51.120;17.024;2023-10-13T04:37:00;19.2;;;15.8;;
68319;SDS011;55168;51.120;17.024;2023-10-13T04:38:00;19.2;;;15.8;;
68319;SDS011;55168;51.120;17.024;2023-10-13T04:39:00;21.2;;;16.7;;
68319;SDS011;55168;51.120;17.024;2023-10-13T04:40:00;21.2;;;16.7;;
68319;SDS011;55168;51.120;17.024;2023-10-13T04:41:00;21.2;;;16.7;;
68319;SDS011;55168;51.120;17.024;2023-10-13T04:42:00;21.2;;;16.7;;
68319;SDS011;55168;51.120;17.024;2023-10-13T04:43:00;21.2;;;16.7;;
68319;SDS011;55168;51.120;17.024;2023-10-13T04:44:00;20.6;;;17.2;;
68319;SDS011;55168;51.120;17.024;2023-10-13T04:45:00;20.6;;;17.2;;
68319;SDS011;55168;51.120;17.024;2023-10-13T04:46:00;20.6;;;17.2;;
68319;SDS011;55168;51.120;17.024;2023-10-13T04:47:01;20.6;;;17.2;;
68319;SDS011;55168;51.120;17.024;2023-10-13T04:48:01;20.6;;;17.2;;
68319;SDS011;55168;51.120;17.024;2023-10-13T04:49:00;23.1;;;17.8;;
68319;SDS011;55168;51.120;17.024;2023-10-13T04:50:01;23.1;;;17.8;;
68319;SDS011;55168;51.120;17.024;2023-10-13T04:51:01;23.1;;;17.8;;
68319;SDS011;55168;51.120;17.024;2023-10-13T04:52:01;23.1;;;17.8;;
68319;SDS011;55168;51.120;17.024;2023-10-13T04:53:00;23.1;;;17.8;;
68319;SDS011;55168;51.120;17.024;2023-10-13T04:54:00;23.9;;;18.2;;
68319;SDS011;55168;51.120;17.024;2023-10-13T04:55:00;23.9;;;18.2;;
68319;SDS011;55168;51.120;17.024;2023-10-13T04:56:01;23.9;;;18.2;;
68319;SDS011;55168;51.120;17.024;2023-10-13T04:57:01;23.9;;;18.2;;
68319;SDS011;55168;51.120;17.024;2023-10-13T04:58:00;23.9;;;18.2;;
68319;SDS011;55168;51.120;17.024;2023-10-13T04:59:00;23.1;;;17.5;;
68319;SDS011;55168;51.120;17.024;2023-10-13T05:00:02;23.1;;;17.5;;
68319;SDS011;55168;51.120;17.024;2023-10-13T05:01:02;23.1;;;17.5;;
68319;SDS011;55168;51.120;17.024;2023-10-13T05:02:00;23.1;;;17.5;;
68319;SDS011;55168;51.120;17.024;2023-10-13T05:03:00;23.1;;;17.5;;
68319;SDS011;55168;51.120;17.024;2023-10-13T05:04:00;20.2;;;16.6;;
68319;SDS011;55168;51.120;17.024;2023-10-13T05:05:00;20.2;;;16.6;;
68319;SDS011;55168;51.120;17.024;2023-10-13T05:06:00;20.2;;;16.6;;
68319;SDS011;55168;51.120;17.024;2023-10-13T05:07:00;20.2;;;16.6;;
68319;SDS011;55168;51.120;17.024;2023-10-13T05:08:00;20.2;;;16.6;;
68319;SDS011;55168;51.120;17.024;2023-10-13T05:09:00;25.0;;;17.4;;
68319;SDS011;55168;51.120;17.024;2023-10-13T05:10:00;25.0;;;17.4;;
68319;SDS011;55168;51.120;17.024;2023-10-13T05:11:05;25.0;;;17.4;;
68319;SDS011;55168;51.120;17.024;2023-10-13T05:12:00;25.0;;;17.4;;
68319;SDS011;55168;51.120;17.024;2023-10-13T05:13:00;25.0;;;17.4;;
68319;SDS011;55168;51.120;17.024;2023-10-13T05:14:00;21.4;;;16.5;;
68319;SDS011;55168;51.120;17.024;2023-10-13T05:15:00;21.4;;;16.5;;
68319;SDS011;55168;51.120;17.024;2023-10-13T05:16:00;21.4;;;16.5;;
68319;SDS011;55168;51.120;17.024;2023-10-13T05:17:00;21.4;;;16.5;;
68319;SDS011;55168;51.120;17.024;2023-10-13T05:18:00;21.4;;;16.5;;
68319;SDS011;55168;51.120;17.024;2023-10-13T05:19:00;22.8;;;16.4;;
68319;SDS011;55168;51.120;17.024;2023-10-13T05:20:00;22.8;;;16.4;;
68319;SDS011;55168;51.120;17.024;2023-10-13T05:21:00;22.8;;;16.4;;
68319;SDS011;55168;51.120;17.024;2023-10-13T05:22:00;22.8;;;16.4;;
68319;SDS011;55168;51.120;17.024;2023-10-13T05:23:00;22.8;;;16.4;;
68319;SDS011;55168;51.120;17.024;2023-10-13T05:24:00;20.9;;;16.1;;
68319;SDS011;55168;51.120;17.024;2023-10-13T05:25:00;20.9;;;16.1;;
68319;SDS011;55168;51.120;17.024;2023-10-13T05:26:01;20.9;;;16.1;;
68319;SDS011;55168;51.120;17.024;2023-10-13T05:27:00;20.9;;;16.1;;
68319;SDS011;55168;51.120;17.024;2023-10-13T05:28:00;20.9;;;16.1;;
68319;SDS011;55168;51.120;17.024;2023-10-13T05:29:00;21.2;;;15.7;;
68319;SDS011;55168;51.120;17.024;2023-10-13T05:30:00;21.2;;;15.7;;
68319;SDS011;55168;51.120;17.024;2023-10-13T05:31:00;21.2;;;15.7;;
68319;SDS011;55168;51.120;17.024;2023-10-13T05:32:00;21.2;;;15.7;;
68319;SDS011;55168;51.120;17.024;2023-10-13T05:33:00;21.2;;;15.7;;
68319;SDS011;55168;51.120;17.024;2023-10-13T05:34:00;23.0;;;16.2;;
68319;SDS011;55168;51.120;17.024;2023-10-13T05:35:00;23.0;;;16.2;;
68319;SDS011;55168;51.120;17.024;2023-10-13T05:36:00;23.0;;;16.2;;
68319;SDS011;55168;51.120;17.024;2023-10-13T05:37:00;23.0;;;16.2;;
68319;SDS011;55168;51.120;17.024;2023-10-13T05:38:00;23.0;;;16.2;;
68319;SDS011;55168;51.120;17.024;2023-10-13T05:39:00;21.8;;;16.0;;
68319;SDS011;55168;51.120;17.024;2023-10-13T05:40:00;21.8;;;16.0;;
68319;SDS011;55168;51.120;17.024;2023-10-13T05:41:03;21.8;;;16.0;;
68319;SDS011;55168;51.120;17.024;2023-10-13T05:42:00;21.8;;;16.0;;
68319;SDS011;55168;51.120;17.024;2023-10-13T05:43:00;21.8;;;16.0;;
68319;SDS011;55168;51.120;17.024;2023-10-13T05:44:00;21.6;;;16.0;;
68319;SDS011;55168;51.120;17.024;2023-10-13T05:45:00;21.6;;;16.0;;
68319;SDS011;55168;51.120;17.024;2023-10-13T05:46:03;21.6;;;16.0;;
68319;SDS011;55168;51.120;17.024;2023-10-13T05:47:00;21.6;;;16.0;;
68319;SDS011;55168;51.120;17.024;2023-10-13T05:48:00;21.6;;;16.0;;
68319;SDS011;55168;51.120;17.024;2023-10-13T05:49:02;22.9;;;16.2;;
68319;SDS011;55168;51.120;17.024;2023-10-13T05:50:00;22.9;;;16.2;;
68319;SDS011;55168;51.120;17.024;2023-10-13T05:51:00;22.9;;;16.2;;
68319;SDS011;55168;51.120;17.024;2023-10-13T05:52:00;22.9;;;16.2;;
68319;SDS011;55168;51.120;17.024;2023-10-13T05:53:00;22.9;;;16.2;;
68319;SDS011;55168;51.120;17.024;2023-10-13T05:54:00;20.6;;;16.2;;
68319;SDS011;55168;51.120;17.024;2023-10-13T05:55:00;20.6;;;16.2;;
68319;SDS011;55168;51.120;17.024;2023-10-13T05:56:01;20.6;;;16.2;;